createdAt,value
2018-09-24T00:00:25.777Z,8.94
2018-09-24T00:02:54.141Z,8.99
2018-09-24T00:05:22.474Z,8.92
2018-09-24T00:07:50.813Z,9.02
2018-09-24T00:10:19.149Z,9.00
2018-09-24T00:12:47.493Z,9.03
2018-09-24T00:15:15.933Z,9.05
2018-09-24T00:17:44.281Z,9.02
2018-09-24T00:20:12.768Z,8.97
2018-09-24T00:22:41.150Z,9.06
2018-09-24T00:25:09.505Z,9.02
2018-09-24T00:27:37.849Z,9.02
2018-09-24T00:30:06.249Z,9.06
2018-09-24T00:32:34.584Z,9.04
2018-09-24T00:35:02.936Z,9.05
2018-09-24T00:37:31.292Z,8.99
2018-09-24T00:39:59.649Z,9.06
2018-09-24T00:42:28.000Z,9.11
2018-09-24T00:44:56.364Z,9.09
2018-09-24T00:47:24.714Z,9.12
2018-09-24T00:49:53.069Z,9.16
2018-09-24T00:52:21.425Z,9.15
2018-09-24T00:54:49.770Z,9.18
2018-09-24T00:57:19.122Z,9.17
2018-09-24T00:59:47.493Z,9.12
2018-09-24T01:02:15.850Z,9.15
2018-09-24T01:04:44.234Z,9.14
2018-09-24T01:07:12.605Z,9.05
2018-09-24T01:09:40.953Z,9.15
2018-09-24T01:12:09.328Z,9.10
2018-09-24T01:14:37.661Z,9.12
2018-09-24T01:17:06.473Z,9.10
2018-09-24T01:19:34.853Z,9.17
2018-09-24T01:22:03.199Z,9.08
2018-09-24T01:24:31.533Z,9.06
2018-09-24T01:26:59.920Z,9.12
2018-09-24T01:29:28.258Z,9.04
2018-09-24T01:31:56.616Z,9.00
2018-09-24T01:34:25.004Z,9.00
2018-09-24T01:36:53.373Z,8.92
2018-09-24T01:39:21.716Z,8.96
2018-09-24T01:41:50.056Z,8.97
2018-09-24T01:44:18.421Z,8.86
2018-09-24T01:46:46.791Z,8.81
2018-09-24T01:49:15.155Z,8.78
2018-09-24T01:51:43.569Z,8.82
2018-09-24T01:54:11.933Z,8.86
2018-09-24T01:56:40.282Z,8.87
2018-09-24T01:59:08.644Z,8.88
2018-09-24T02:01:36.972Z,8.85
2018-09-24T02:04:05.327Z,8.92
2018-09-24T02:06:33.704Z,8.86
2018-09-24T02:09:02.056Z,8.84
2018-09-24T02:11:30.391Z,8.86
2018-09-24T02:13:58.793Z,8.93
2018-09-24T02:16:27.132Z,8.92
2018-09-24T02:18:59.540Z,8.85
2018-09-24T02:21:28.041Z,8.91
2018-09-24T02:24:03.893Z,8.96
2018-09-24T02:26:32.257Z,9.03
2018-09-24T02:29:00.593Z,8.92
2018-09-24T02:31:29.065Z,8.97
2018-09-24T02:33:57.396Z,8.90
2018-09-24T02:36:25.736Z,9.04
2018-09-24T02:38:54.101Z,8.98
2018-09-24T02:41:22.447Z,8.93
2018-09-24T02:43:50.786Z,8.91
2018-09-24T02:46:19.187Z,8.91
2018-09-24T02:48:47.539Z,8.93
2018-09-24T02:51:15.889Z,8.98
2018-09-24T02:53:44.257Z,8.96
2018-09-24T02:56:12.597Z,8.89
2018-09-24T02:58:40.936Z,8.87
2018-09-24T03:01:09.320Z,8.84
2018-09-24T03:03:37.673Z,8.91
2018-09-24T03:06:06.036Z,8.91
2018-09-24T03:08:35.009Z,8.89
2018-09-24T03:11:04.494Z,8.93
2018-09-24T03:13:32.865Z,8.94
2018-09-24T03:16:01.232Z,8.88
2018-09-24T03:18:29.580Z,8.95
2018-09-24T03:20:58.037Z,8.86
2018-09-24T03:23:26.401Z,8.89
2018-09-24T03:25:54.745Z,8.83
2018-09-24T03:28:23.077Z,8.87
2018-09-24T03:30:51.473Z,8.79
2018-09-24T03:33:19.808Z,8.87
2018-09-24T03:35:48.145Z,8.84
2018-09-24T03:38:16.516Z,8.83
2018-09-24T03:40:44.844Z,8.85
2018-09-24T03:43:13.192Z,8.80
2018-09-24T03:45:41.548Z,8.81
2018-09-24T03:48:09.873Z,8.83
2018-09-24T03:50:38.188Z,8.91
2018-09-24T03:53:06.517Z,8.99
2018-09-24T03:55:34.844Z,8.92
2018-09-24T03:58:03.244Z,8.98
2018-09-24T04:00:31.596Z,8.98
2018-09-24T04:02:59.957Z,9.00
2018-09-24T04:05:33.750Z,8.97
2018-09-24T04:08:07.144Z,9.09
2018-09-24T04:10:40.644Z,9.07
2018-09-24T04:13:14.108Z,9.12
2018-09-24T04:15:47.908Z,9.15
2018-09-24T04:18:21.596Z,9.10
2018-09-24T04:20:55.151Z,9.01
2018-09-24T04:23:29.685Z,9.01
2018-09-24T04:26:03.250Z,8.91
2018-09-24T04:28:36.929Z,9.03
2018-09-24T04:31:10.440Z,9.02
2018-09-24T04:33:44.201Z,9.09
2018-09-24T04:36:17.921Z,9.03
2018-09-24T04:38:51.652Z,9.05
2018-09-24T04:41:25.640Z,9.04
2018-09-24T04:43:59.368Z,9.10
2018-09-24T04:46:33.073Z,9.13
2018-09-24T04:49:07.809Z,9.13
2018-09-24T04:51:41.534Z,9.01
2018-09-24T04:54:15.309Z,9.02
2018-09-24T04:56:48.900Z,8.97
2018-09-24T04:59:22.621Z,9.04
2018-09-24T05:01:56.296Z,8.97
2018-09-24T05:04:29.832Z,9.10
2018-09-24T05:07:03.492Z,9.08
2018-09-24T05:09:37.223Z,9.06
2018-09-24T05:12:10.720Z,9.07
2018-09-24T05:14:44.415Z,9.05
2018-09-24T05:17:17.825Z,9.08
2018-09-24T05:19:51.532Z,9.09
2018-09-24T05:22:25.289Z,9.16
2018-09-24T05:24:58.824Z,9.15
2018-09-24T05:27:32.563Z,9.23
2018-09-24T05:30:06.289Z,9.25
2018-09-24T05:32:39.990Z,9.30
2018-09-24T05:35:13.617Z,9.28
2018-09-24T05:37:47.001Z,9.30
2018-09-24T05:40:20.686Z,9.32
2018-09-24T05:42:54.389Z,9.41
2018-09-24T05:45:34.761Z,9.25
2018-09-24T05:48:08.471Z,9.23
2018-09-24T05:50:42.200Z,9.29
2018-09-24T05:53:15.957Z,9.27
2018-09-24T05:55:49.436Z,9.13
2018-09-24T05:58:23.097Z,9.14
2018-09-24T06:00:56.569Z,9.20
2018-09-24T06:03:30.006Z,9.28
2018-09-24T06:09:40.263Z,9.56
2018-09-24T06:12:13.716Z,9.59
2018-09-24T06:14:47.473Z,9.48
2018-09-24T06:17:21.253Z,9.58
2018-09-24T06:19:56.940Z,9.72
2018-09-24T06:22:30.664Z,9.67
2018-09-24T06:25:04.277Z,9.90
2018-09-24T06:27:38.001Z,9.79
2018-09-24T06:30:11.877Z,10.08
2018-09-24T06:32:46.154Z,10.29
2018-09-24T06:35:19.659Z,10.44
2018-09-24T06:37:53.312Z,10.10
2018-09-24T06:40:27.076Z,10.19
2018-09-24T06:43:01.033Z,10.39
2018-09-24T06:45:34.681Z,10.62
2018-09-24T06:48:08.677Z,10.76
2018-09-24T06:50:43.393Z,10.58
2018-09-24T06:53:17.109Z,10.44
2018-09-24T06:55:52.337Z,10.92
2018-09-24T06:58:26.073Z,10.98
2018-09-24T07:00:59.913Z,11.00
2018-09-24T07:03:33.664Z,11.04
2018-09-24T07:06:07.745Z,11.21
2018-09-24T07:08:41.221Z,11.13
2018-09-24T07:11:14.772Z,11.39
2018-09-24T07:13:48.948Z,11.26
2018-09-24T07:16:22.399Z,11.37
2018-09-24T07:18:56.837Z,11.48
2018-09-24T07:21:31.269Z,11.57
2018-09-24T07:24:04.957Z,11.70
2018-09-24T07:26:38.945Z,11.61
2018-09-24T07:29:12.668Z,11.89
2018-09-24T07:31:46.382Z,12.51
2018-09-24T07:34:19.826Z,12.72
2018-09-24T07:36:53.598Z,13.09
2018-09-24T07:39:27.368Z,12.73
2018-09-24T07:42:00.860Z,12.48
2018-09-24T07:44:34.648Z,12.41
2018-09-24T07:47:08.784Z,12.40
2018-09-24T07:49:42.400Z,12.11
2018-09-24T07:52:16.120Z,12.28
2018-09-24T07:54:49.989Z,12.53
2018-09-24T07:57:23.624Z,12.86
2018-09-24T07:59:57.352Z,12.66
2018-09-24T08:02:31.052Z,12.64
2018-09-24T08:05:04.780Z,12.58
2018-09-24T08:07:38.502Z,12.37
2018-09-24T08:10:11.944Z,12.61
2018-09-24T08:12:45.466Z,12.73
2018-09-24T08:15:19.129Z,12.36
2018-09-24T08:17:52.900Z,12.73
2018-09-24T08:20:26.597Z,12.73
2018-09-24T08:23:00.264Z,12.69
2018-09-24T08:25:33.651Z,12.90
2018-09-24T08:28:07.152Z,12.71
2018-09-24T08:30:40.860Z,12.93
2018-09-24T08:33:14.657Z,13.23
2018-09-24T08:35:48.129Z,13.38
2018-09-24T08:38:21.941Z,13.55
2018-09-24T08:40:55.713Z,13.32
2018-09-24T08:43:29.476Z,13.28
2018-09-24T08:46:02.925Z,13.21
2018-09-24T08:48:36.759Z,13.09
2018-09-24T08:51:10.462Z,12.50
2018-09-24T08:53:44.265Z,12.62
2018-09-24T08:56:17.945Z,12.38
2018-09-24T08:58:51.465Z,12.20
2018-09-24T09:01:24.997Z,12.23
2018-09-24T09:03:58.458Z,12.14
2018-09-24T09:06:32.193Z,12.32
2018-09-24T09:09:05.708Z,12.62
2018-09-24T09:11:39.175Z,12.72
2018-09-24T09:14:12.656Z,12.86
2018-09-24T09:16:46.125Z,13.30
2018-09-24T09:19:19.641Z,13.63
2018-09-24T09:21:53.427Z,13.55
2018-09-24T09:24:27.088Z,13.44
2018-09-24T09:27:00.540Z,13.60
2018-09-24T09:29:34.129Z,13.29
2018-09-24T09:32:07.692Z,13.29
2018-09-24T09:34:42.145Z,13.58
2018-09-24T09:37:15.952Z,13.68
2018-09-24T09:39:49.703Z,13.72
2018-09-24T09:42:23.396Z,14.16
2018-09-24T09:44:56.848Z,14.58
2018-09-24T09:47:30.556Z,14.31
2018-09-24T09:50:04.073Z,14.86
2018-09-24T09:52:37.724Z,14.41
2018-09-24T09:55:11.228Z,13.97
2018-09-24T09:57:44.976Z,13.65
2018-09-24T10:00:18.480Z,13.49
2018-09-24T10:02:51.941Z,13.17
2018-09-24T10:05:25.769Z,13.07
2018-09-24T10:07:59.313Z,13.45
2018-09-24T10:10:33.003Z,13.93
2018-09-24T10:13:06.732Z,13.93
2018-09-24T10:15:41.305Z,13.37
2018-09-24T10:18:14.840Z,13.59
2018-09-24T10:20:48.338Z,13.80
2018-09-24T10:23:21.809Z,13.99
2018-09-24T10:25:57.530Z,13.52
2018-09-24T10:28:31.040Z,13.34
2018-09-24T10:31:04.573Z,13.84
2018-09-24T10:33:38.364Z,14.07
2018-09-24T10:36:12.464Z,14.19
2018-09-24T10:38:45.940Z,14.06
2018-09-24T10:41:19.713Z,13.95
2018-09-24T10:44:00.069Z,14.05
2018-09-24T10:46:33.651Z,13.46
2018-09-24T10:49:07.232Z,13.76
2018-09-24T10:51:40.877Z,13.93
2018-09-24T10:54:14.284Z,14.31
2018-09-24T10:56:48.071Z,14.19
2018-09-24T10:59:21.735Z,14.09
2018-09-24T11:01:55.499Z,14.15
2018-09-24T11:04:29.216Z,13.46
2018-09-24T11:07:02.956Z,12.57
2018-09-24T11:09:36.367Z,12.42
2018-09-24T11:12:10.064Z,11.88
2018-09-24T11:14:43.456Z,11.23
2018-09-24T11:17:17.469Z,11.47
2018-09-24T11:19:50.953Z,12.03
2018-09-24T11:22:24.929Z,11.96
2018-09-24T11:24:58.610Z,11.49
2018-09-24T11:27:32.386Z,11.39
2018-09-24T11:30:05.945Z,11.42
2018-09-24T11:32:49.107Z,11.12
2018-09-24T11:35:22.780Z,11.38
2018-09-24T11:37:56.529Z,11.30
2018-09-24T11:40:31.161Z,11.54
2018-09-24T11:43:04.837Z,11.89
2018-09-24T11:45:38.349Z,11.90
2018-09-24T11:48:12.185Z,11.70
2018-09-24T11:50:45.960Z,11.49
2018-09-24T11:53:19.644Z,11.63
2018-09-24T11:55:53.121Z,11.54
2018-09-24T11:58:26.716Z,11.48
2018-09-24T12:01:00.424Z,11.53
2018-09-24T12:03:33.976Z,11.83
2018-09-24T12:06:07.441Z,11.71
2018-09-24T12:08:41.253Z,12.03
2018-09-24T12:11:15.976Z,12.33
2018-09-24T12:13:49.621Z,12.07
2018-09-24T12:16:23.338Z,12.36
2018-09-24T12:18:57.115Z,12.33
2018-09-24T12:21:30.824Z,12.51
2018-09-24T12:24:04.728Z,12.33
2018-09-24T12:26:39.379Z,12.46
2018-09-24T12:29:12.941Z,12.38
2018-09-24T12:31:46.731Z,12.40
2018-09-24T12:34:22.076Z,12.37
2018-09-24T12:36:55.864Z,12.50
2018-09-24T12:39:29.617Z,12.62
2018-09-24T12:42:03.362Z,12.74
2018-09-24T12:44:37.027Z,12.92
2018-09-24T12:47:10.481Z,13.19
2018-09-24T12:49:44.497Z,13.29
2018-09-24T12:52:18.243Z,12.63
2018-09-24T12:54:51.868Z,12.51
2018-09-24T12:57:25.402Z,12.33
2018-09-24T12:59:58.897Z,11.12
2018-09-24T13:02:33.412Z,10.77
2018-09-24T13:05:07.125Z,10.96
2018-09-24T13:07:40.896Z,10.88
2018-09-24T13:10:14.759Z,10.98
2018-09-24T13:12:48.497Z,11.36
2018-09-24T13:15:22.237Z,11.27
2018-09-24T13:17:55.892Z,11.48
2018-09-24T13:20:29.645Z,11.37
2018-09-24T13:23:03.296Z,11.72
2018-09-24T13:25:36.868Z,12.35
2018-09-24T13:28:10.560Z,12.95
2018-09-24T13:30:44.336Z,12.20
2018-09-24T13:33:18.045Z,12.15
2018-09-24T13:35:51.660Z,12.08
2018-09-24T13:38:25.465Z,11.80
2018-09-24T13:40:59.069Z,12.01
2018-09-24T13:43:32.767Z,12.06
2018-09-24T13:46:06.194Z,12.18
2018-09-24T13:48:39.861Z,12.37
2018-09-24T13:51:13.885Z,12.27
2018-09-24T13:53:47.336Z,12.42
2018-09-24T13:56:21.137Z,12.03
2018-09-24T13:58:54.876Z,12.12
2018-09-24T14:01:30.652Z,12.21
2018-09-24T14:04:04.201Z,12.19
2018-09-24T14:06:37.910Z,12.23
2018-09-24T14:09:13.101Z,12.48
2018-09-24T14:11:46.788Z,12.98
2018-09-24T14:14:20.281Z,12.88
2018-09-24T14:16:53.814Z,13.04
2018-09-24T14:19:27.548Z,12.90
2018-09-24T14:22:01.049Z,12.90
2018-09-24T14:24:34.468Z,12.88
2018-09-24T14:27:08.230Z,13.32
2018-09-24T14:29:45.320Z,13.53
2018-09-24T14:32:19.088Z,14.01
2018-09-24T14:34:52.609Z,14.56
2018-09-24T14:37:26.077Z,14.30
2018-09-24T14:39:59.537Z,14.79
2018-09-24T14:42:33.404Z,14.44
2018-09-24T14:45:07.169Z,14.01
2018-09-24T14:47:40.740Z,14.18
2018-09-24T14:50:14.208Z,13.91
2018-09-24T14:52:47.979Z,14.94
2018-09-24T14:55:21.725Z,15.89
2018-09-24T14:57:55.313Z,16.70
2018-09-24T15:00:28.708Z,16.41
2018-09-24T15:03:02.225Z,16.22
2018-09-24T15:05:35.921Z,16.11
2018-09-24T15:08:09.409Z,16.18
2018-09-24T15:10:43.173Z,16.39
2018-09-24T15:13:17.004Z,17.75
2018-09-24T15:15:50.464Z,18.12
2018-09-24T15:18:24.296Z,15.26
2018-09-24T15:20:57.848Z,13.50
2018-09-24T15:23:31.325Z,12.80
2018-09-24T15:26:05.096Z,11.56
2018-09-24T15:28:38.836Z,11.90
2018-09-24T15:31:12.496Z,15.31
2018-09-24T15:33:46.261Z,18.73
2018-09-24T15:36:19.933Z,20.61
2018-09-24T15:38:53.348Z,21.61
2018-09-24T15:41:27.088Z,21.45
2018-09-24T15:44:00.792Z,22.55
2018-09-24T15:46:34.229Z,22.67
2018-09-24T15:49:07.836Z,20.70
2018-09-24T15:51:41.574Z,20.68
2018-09-24T15:54:15.484Z,21.83
2018-09-24T15:56:49.141Z,22.04
2018-09-24T15:59:22.689Z,20.77
2018-09-24T16:01:56.202Z,21.58
2018-09-24T16:04:30.002Z,16.12
2018-09-24T16:07:03.505Z,14.10
2018-09-24T16:09:37.272Z,13.67
2018-09-24T16:12:10.748Z,12.73
2018-09-24T16:14:44.204Z,12.11
2018-09-24T16:17:17.848Z,12.12
2018-09-24T16:19:51.552Z,11.94
2018-09-24T16:22:25.003Z,12.01
2018-09-24T16:24:58.736Z,11.73
2018-09-24T16:27:33.071Z,11.38
2018-09-24T16:30:06.864Z,11.24
2018-09-24T16:32:40.345Z,11.32
2018-09-24T16:35:13.908Z,11.07
2018-09-24T16:37:47.643Z,10.84
2018-09-24T16:40:21.157Z,10.95
2018-09-24T16:42:54.602Z,11.02
2018-09-24T16:45:28.154Z,10.97
2018-09-24T16:48:01.652Z,10.88
2018-09-24T16:50:35.493Z,10.66
2018-09-24T16:53:09.274Z,10.49
2018-09-24T16:55:43.097Z,10.31
2018-09-24T16:58:16.861Z,10.41
2018-09-24T17:00:50.660Z,10.22
2018-09-24T17:03:24.089Z,10.11
2018-09-24T17:05:57.772Z,10.23
2018-09-24T17:08:31.235Z,10.18
2018-09-24T17:11:05.007Z,10.13
2018-09-24T17:13:38.517Z,10.01
2018-09-24T17:16:12.317Z,9.94
2018-09-24T17:18:46.077Z,9.85
2018-09-24T17:21:19.702Z,9.83
2018-09-24T17:23:53.367Z,9.80
2018-09-24T17:26:27.136Z,9.72
2018-09-24T17:29:00.803Z,9.61
2018-09-24T17:31:34.216Z,9.47
2018-09-24T17:34:07.950Z,9.41
2018-09-24T17:36:41.779Z,9.40
2018-09-24T17:39:15.514Z,9.38
2018-09-24T17:41:49.071Z,9.32
2018-09-24T17:44:22.501Z,9.34
2018-09-24T17:46:56.268Z,9.26
2018-09-24T17:49:30.013Z,9.29
2018-09-24T17:52:03.710Z,9.22
2018-09-24T17:54:37.190Z,9.16
2018-09-24T17:57:10.850Z,9.16
2018-09-24T17:59:44.712Z,9.06
2018-09-24T18:02:18.363Z,9.09
2018-09-24T18:04:51.878Z,9.21
2018-09-24T18:07:25.685Z,8.99
2018-09-24T18:09:59.137Z,9.03
2018-09-24T18:12:32.813Z,9.06
2018-09-24T18:15:06.472Z,8.98
2018-09-24T18:17:40.330Z,8.95
2018-09-24T18:20:13.944Z,8.84
2018-09-24T18:22:47.677Z,8.91
2018-09-24T18:25:21.444Z,8.90
2018-09-24T18:27:55.145Z,9.01
2018-09-24T18:30:28.860Z,8.80
2018-09-24T18:33:02.681Z,8.85
2018-09-24T18:35:36.412Z,8.76
2018-09-24T18:38:10.252Z,8.77
2018-09-24T18:40:43.956Z,8.76
2018-09-24T18:43:17.722Z,8.83
2018-09-24T18:45:51.535Z,8.68
2018-09-24T18:48:25.051Z,8.67
2018-09-24T18:50:58.446Z,8.69
2018-09-24T18:53:32.216Z,8.77
2018-09-24T18:56:05.906Z,8.77
2018-09-24T18:58:39.421Z,8.79
2018-09-24T19:01:13.171Z,8.84
2018-09-24T19:03:46.960Z,8.79
2018-09-24T19:06:20.601Z,8.72
2018-09-24T19:08:54.048Z,8.81
2018-09-24T19:11:28.109Z,8.70
2018-09-24T19:14:01.212Z,8.74
2018-09-24T19:16:34.920Z,8.75
2018-09-24T19:19:08.503Z,8.71
2018-09-24T19:21:42.073Z,8.70
2018-09-24T19:24:15.898Z,8.65
2018-09-24T19:26:49.557Z,8.56
2018-09-24T19:29:25.145Z,8.64
2018-09-24T19:31:58.651Z,8.60
2018-09-24T19:34:32.352Z,8.55
2018-09-24T19:37:06.165Z,8.54
2018-09-24T19:39:39.922Z,8.57
2018-09-24T19:42:13.476Z,8.53
2018-09-24T19:44:47.256Z,8.61
2018-09-24T19:47:21.041Z,8.63
2018-09-24T19:49:54.785Z,8.61
2018-09-24T19:52:28.483Z,8.61
2018-09-24T19:55:02.150Z,8.70
2018-09-24T19:57:35.581Z,8.75
2018-09-24T20:00:09.391Z,8.72
2018-09-24T20:02:43.017Z,8.76
2018-09-24T20:05:16.685Z,8.71
2018-09-24T20:07:50.189Z,8.68
2018-09-24T20:10:23.899Z,8.75
2018-09-24T20:12:57.454Z,8.83
2018-09-24T20:15:31.220Z,8.84
2018-09-24T20:18:04.828Z,8.86
2018-09-24T20:20:38.325Z,8.79
2018-09-24T20:23:12.085Z,8.82
2018-09-24T20:25:45.749Z,8.75
2018-09-24T20:28:19.200Z,8.70
2018-09-24T20:30:52.966Z,8.69
2018-09-24T20:33:26.476Z,8.43
2018-09-24T20:36:00.242Z,8.39
2018-09-24T20:38:33.991Z,8.32
2018-09-24T20:41:07.776Z,8.31
2018-09-24T20:43:41.209Z,8.24
2018-09-24T20:46:14.961Z,8.27
2018-09-24T20:48:48.297Z,8.25
2018-09-24T20:51:22.037Z,8.38
2018-09-24T20:53:55.502Z,8.30
2018-09-24T20:56:29.272Z,8.22
2018-09-24T20:59:03.963Z,8.28
2018-09-24T21:01:37.558Z,8.16
2018-09-24T21:04:11.241Z,8.21
2018-09-24T21:06:44.745Z,8.14
2018-09-24T21:09:18.253Z,8.10
2018-09-24T21:11:51.858Z,8.19
2018-09-24T21:14:25.240Z,8.23
2018-09-24T21:16:58.952Z,8.10
2018-09-24T21:19:32.714Z,8.17
2018-09-24T21:22:06.192Z,8.32
2018-09-24T21:24:39.890Z,8.26
2018-09-24T21:27:13.332Z,8.23
2018-09-24T21:29:46.785Z,8.19
2018-09-24T21:32:20.549Z,8.24
2018-09-24T21:34:54.267Z,8.20
2018-09-24T21:37:28.002Z,8.22
2018-09-24T21:40:01.536Z,8.26
2018-09-24T21:42:35.724Z,8.27
2018-09-24T21:45:09.407Z,8.34
2018-09-24T21:47:43.005Z,8.32
2018-09-24T21:50:16.681Z,8.41
2018-09-24T21:52:50.260Z,8.38
2018-09-24T21:55:23.925Z,8.17
2018-09-24T21:57:57.784Z,8.26
2018-09-24T22:00:31.458Z,8.19
2018-09-24T22:03:05.471Z,8.25
2018-09-24T22:05:39.097Z,8.22
2018-09-24T22:08:12.972Z,8.20
2018-09-24T22:10:46.453Z,8.13
2018-09-24T22:13:20.196Z,8.17
2018-09-24T22:15:53.664Z,8.13
2018-09-24T22:18:27.168Z,8.12
2018-09-24T22:21:00.701Z,8.02
2018-09-24T22:23:34.190Z,8.00
2018-09-24T22:26:08.025Z,7.94
2018-09-24T22:28:42.787Z,8.00
2018-09-24T22:31:16.242Z,7.96
2018-09-24T22:33:49.888Z,8.05
2018-09-24T22:36:23.631Z,8.07
2018-09-24T22:38:58.300Z,7.96
2018-09-24T22:41:32.048Z,7.90
2018-09-24T22:44:05.690Z,7.84
2018-09-24T22:46:39.799Z,7.77
2018-09-24T22:49:13.537Z,7.84
2018-09-24T22:51:47.033Z,7.75
2018-09-24T22:54:20.983Z,7.77
2018-09-24T22:56:54.676Z,7.74
2018-09-24T22:59:28.451Z,7.81
2018-09-24T23:02:02.065Z,7.77
2018-09-24T23:04:35.609Z,7.71
2018-09-24T23:07:09.399Z,7.65
2018-09-24T23:09:43.157Z,7.68
2018-09-24T23:12:16.928Z,7.67
2018-09-24T23:14:50.644Z,7.58
2018-09-24T23:17:24.107Z,7.47
2018-09-24T23:19:57.604Z,7.51
2018-09-24T23:22:31.302Z,7.53
2018-09-24T23:25:04.824Z,7.52
2018-09-24T23:27:38.218Z,7.52
2018-09-24T23:30:11.734Z,7.54
2018-09-24T23:32:45.496Z,7.50
2018-09-24T23:35:19.171Z,7.62
2018-09-24T23:37:52.857Z,7.61
2018-09-24T23:40:26.664Z,7.62
2018-09-24T23:43:00.190Z,7.51
2018-09-24T23:45:34.140Z,7.51
2018-09-24T23:48:07.856Z,7.53
2018-09-24T23:50:41.602Z,7.50
2018-09-24T23:53:15.268Z,7.34
2018-09-24T23:55:48.776Z,7.28
2018-09-24T23:58:22.304Z,7.27
